createdAt,value
2019-05-11T00:00:22.651Z,99159.91
2019-05-11T00:02:57.167Z,99154.37
2019-05-11T00:05:31.047Z,99157.70
2019-05-11T00:08:05.008Z,99157.08
2019-05-11T00:10:41.077Z,99157.01
2019-05-11T00:13:14.893Z,99155.17
2019-05-11T00:15:48.789Z,99155.52
2019-05-11T00:18:23.098Z,99151.08
2019-05-11T00:20:57.302Z,99148.39
2019-05-11T00:23:31.804Z,99146.00
2019-05-11T00:26:05.809Z,99152.88
2019-05-11T00:28:40.050Z,99156.42
2019-05-11T00:31:13.344Z,99156.55
2019-05-11T00:33:47.458Z,99152.08
2019-05-11T00:36:21.100Z,99154.05
2019-05-11T00:38:54.667Z,99151.45
2019-05-11T00:41:28.445Z,99160.27
2019-05-11T00:44:02.298Z,99161.36
2019-05-11T00:46:35.629Z,99174.56
2019-05-11T00:49:09.306Z,99168.23
2019-05-11T00:51:42.678Z,99172.38
2019-05-11T00:54:16.901Z,99170.83
2019-05-11T00:56:51.768Z,99169.98
2019-05-11T00:59:25.631Z,99178.12
2019-05-11T01:01:59.871Z,99172.66
2019-05-11T01:04:33.577Z,99173.86
2019-05-11T01:07:07.670Z,99173.50
2019-05-11T01:09:41.927Z,99179.20
2019-05-11T01:12:15.720Z,99178.87
2019-05-11T01:14:49.097Z,99173.91
2019-05-11T01:17:22.895Z,99179.95
2019-05-11T01:19:56.590Z,99183.23
2019-05-11T01:22:30.839Z,99188.23
2019-05-11T01:25:04.645Z,99189.69
2019-05-11T01:27:38.008Z,99188.68
2019-05-11T01:30:11.377Z,99182.98
2019-05-11T01:32:45.917Z,99182.83
2019-05-11T01:35:20.368Z,99172.06
2019-05-11T01:37:55.459Z,99177.82
2019-05-11T01:40:29.635Z,99179.05
2019-05-11T01:43:03.834Z,99182.91
2019-05-11T01:45:37.427Z,99185.69
2019-05-11T01:48:11.658Z,99180.02
2019-05-11T01:50:48.628Z,99184.45
2019-05-11T01:53:23.200Z,99186.58
2019-05-11T01:55:56.541Z,99184.53
2019-05-11T02:01:44.273Z,99185.72
2019-05-11T02:04:18.501Z,99184.77
2019-05-11T02:06:52.789Z,99180.53
2019-05-11T02:09:27.029Z,99178.47
2019-05-11T02:12:01.074Z,99179.98
2019-05-11T02:14:34.862Z,99183.76
2019-05-11T02:17:08.214Z,99184.89
2019-05-11T02:19:45.033Z,99185.47
2019-05-11T02:22:18.980Z,99186.34
2019-05-11T02:24:52.842Z,99190.38
2019-05-11T02:27:26.955Z,99188.18
2019-05-11T02:30:00.744Z,99189.52
2019-05-11T02:32:34.504Z,99194.27
2019-05-11T02:35:08.646Z,99194.14
2019-05-11T02:37:42.409Z,99195.06
2019-05-11T02:40:18.911Z,99197.83
2019-05-11T02:42:53.644Z,99195.17
2019-05-11T02:45:43.269Z,99195.52
2019-05-11T02:48:17.550Z,99200.02
2019-05-11T02:50:52.198Z,99199.36
2019-05-11T02:53:27.373Z,99199.63
2019-05-11T02:56:02.977Z,99202.39
2019-05-11T02:58:36.399Z,99208.65
2019-05-11T03:01:10.788Z,99211.44
2019-05-11T03:03:44.527Z,99203.00
2019-05-11T03:06:18.501Z,99195.00
2019-05-11T03:08:52.308Z,99183.86
2019-05-11T03:11:25.670Z,99188.30
2019-05-11T03:13:59.072Z,99195.66
2019-05-11T03:16:33.349Z,99187.28
2019-05-11T03:19:07.615Z,99196.38
2019-05-11T03:21:41.845Z,99199.42
2019-05-11T03:24:16.096Z,99217.50
2019-05-11T03:26:51.023Z,99216.77
2019-05-11T03:29:25.356Z,99221.11
2019-05-11T03:31:59.857Z,99216.75
2019-05-11T03:34:34.003Z,99226.27
2019-05-11T03:37:08.410Z,99230.23
2019-05-11T03:39:43.248Z,99234.05
2019-05-11T03:42:17.162Z,99242.50
2019-05-11T03:44:50.946Z,99241.27
2019-05-11T03:47:23.860Z,99244.96
2019-05-11T03:49:58.153Z,99240.29
2019-05-11T03:52:31.964Z,99244.20
2019-05-11T03:55:05.962Z,99248.75
2019-05-11T03:57:40.304Z,99239.38
2019-05-11T04:00:14.706Z,99243.36
2019-05-11T04:02:48.510Z,99243.94
2019-05-11T04:05:22.596Z,99252.48
2019-05-11T04:07:57.517Z,99255.08
2019-05-11T04:10:31.866Z,99253.67
2019-05-11T04:13:04.782Z,99254.77
2019-05-11T04:15:38.990Z,99251.98
2019-05-11T04:18:12.694Z,99255.09
2019-05-11T04:20:46.617Z,99255.77
2019-05-11T04:23:20.453Z,99253.72
2019-05-11T04:25:54.184Z,99255.44
2019-05-11T04:28:28.430Z,99257.91
2019-05-11T04:31:02.279Z,99258.77
2019-05-11T04:33:37.179Z,99259.73
2019-05-11T04:36:12.490Z,99259.97
2019-05-11T04:38:46.387Z,99258.91
2019-05-11T04:41:20.881Z,99258.23
2019-05-11T04:43:55.155Z,99264.88
2019-05-11T04:46:30.093Z,99264.97
2019-05-11T04:49:04.610Z,99268.34
2019-05-11T04:51:38.603Z,99269.27
2019-05-11T04:54:12.357Z,99278.54
2019-05-11T04:56:46.670Z,99275.23
2019-05-11T04:59:20.348Z,99277.23
2019-05-11T05:01:54.142Z,99281.53
2019-05-11T05:04:28.953Z,99275.34
2019-05-11T05:07:10.705Z,99277.25
2019-05-11T05:09:44.600Z,99283.26
2019-05-11T05:12:18.125Z,99272.97
2019-05-11T05:14:51.945Z,99278.68
2019-05-11T05:17:25.866Z,99279.44
2019-05-11T05:20:00.128Z,99279.91
2019-05-11T05:22:35.153Z,99277.30
2019-05-11T05:25:08.886Z,99266.83
2019-05-11T05:27:43.237Z,99273.27
2019-05-11T05:30:18.099Z,99272.13
2019-05-11T05:32:51.296Z,99271.56
2019-05-11T05:35:25.869Z,99280.98
2019-05-11T05:37:59.438Z,99276.80
2019-05-11T05:40:33.098Z,99278.83
2019-05-11T05:43:06.908Z,99287.81
2019-05-11T05:45:40.618Z,99293.36
2019-05-11T05:48:14.647Z,99293.22
2019-05-11T05:50:48.006Z,99292.27
2019-05-11T05:53:21.925Z,99291.83
2019-05-11T05:55:56.282Z,99284.98
2019-05-11T05:58:29.847Z,99295.05
2019-05-11T06:01:05.233Z,99290.10
2019-05-11T06:03:39.021Z,99294.54
2019-05-11T06:06:13.241Z,99291.91
2019-05-11T06:08:49.889Z,99290.48
2019-05-11T06:11:23.590Z,99285.56
2019-05-11T06:13:57.419Z,99281.34
2019-05-11T06:16:31.513Z,99277.91
2019-05-11T06:19:04.574Z,99276.03
2019-05-11T06:21:38.341Z,99269.70
2019-05-11T06:24:11.714Z,99276.61
2019-05-11T06:26:45.066Z,99272.24
2019-05-11T06:29:21.697Z,99270.81
2019-05-11T06:31:53.432Z,99268.20
2019-05-11T06:34:26.335Z,99274.55
2019-05-11T06:36:59.739Z,99273.38
2019-05-11T06:39:38.858Z,99267.09
2019-05-11T06:42:12.586Z,99265.85
2019-05-11T06:44:46.663Z,99269.23
2019-05-11T06:47:19.952Z,99263.09
2019-05-11T06:49:53.689Z,99268.55
2019-05-11T06:52:29.973Z,99265.98
2019-05-11T06:55:08.386Z,99264.60
2019-05-11T06:57:42.605Z,99264.64
2019-05-11T07:00:18.713Z,99268.72
2019-05-11T07:02:52.821Z,99264.89
2019-05-11T07:05:26.425Z,99258.40
2019-05-11T07:08:00.704Z,99252.66
2019-05-11T07:10:34.553Z,99252.02
2019-05-11T07:13:08.775Z,99253.81
2019-05-11T07:15:42.736Z,99251.14
2019-05-11T07:18:17.020Z,99253.83
2019-05-11T07:20:51.577Z,99248.83
2019-05-11T07:23:25.862Z,99238.31
2019-05-11T07:26:00.539Z,99244.33
2019-05-11T07:28:35.949Z,99238.98
2019-05-11T07:31:13.321Z,99238.24
2019-05-11T07:33:48.594Z,99234.58
2019-05-11T07:36:21.961Z,99234.32
2019-05-11T07:38:58.044Z,99235.75
2019-05-11T07:41:31.637Z,99235.56
2019-05-11T07:44:04.987Z,99228.37
2019-05-11T07:46:38.695Z,99230.83
2019-05-11T07:49:13.143Z,99229.29
2019-05-11T07:51:48.129Z,99230.11
2019-05-11T07:54:22.831Z,99234.12
2019-05-11T07:56:58.223Z,99229.66
2019-05-11T07:59:31.614Z,99225.83
2019-05-11T08:02:05.302Z,99226.02
2019-05-11T08:04:40.938Z,99229.51
2019-05-11T08:07:15.406Z,99224.67
2019-05-11T08:09:50.135Z,99225.02
2019-05-11T08:12:24.132Z,99219.62
2019-05-11T08:15:05.939Z,99216.51
2019-05-11T08:17:33.207Z,99214.14
2019-05-11T08:20:08.361Z,99215.06
2019-05-11T08:22:41.914Z,99197.96
2019-05-11T08:25:15.444Z,99203.59
2019-05-11T08:27:49.460Z,99198.75
2019-05-11T08:30:23.662Z,99194.89
2019-05-11T08:32:58.363Z,99197.66
2019-05-11T08:35:32.881Z,99193.77
2019-05-11T08:38:08.652Z,99190.63
2019-05-11T08:40:41.326Z,99190.80
2019-05-11T08:43:15.152Z,99190.57
2019-05-11T08:45:48.744Z,99192.08
2019-05-11T08:48:22.225Z,99190.80
2019-05-11T08:50:58.236Z,99192.97
2019-05-11T08:53:32.206Z,99193.03
2019-05-11T08:56:05.426Z,99189.12
2019-05-11T08:58:39.203Z,99182.40
2019-05-11T09:01:15.096Z,99179.27
2019-05-11T09:03:48.030Z,99181.39
2019-05-11T09:06:21.955Z,99176.52
2019-05-11T09:08:58.200Z,99179.55
2019-05-11T09:11:31.741Z,99182.53
2019-05-11T09:14:04.950Z,99183.09
2019-05-11T09:16:38.787Z,99174.00
2019-05-11T09:19:12.955Z,99171.63
2019-05-11T09:21:48.216Z,99172.30
2019-05-11T09:24:22.173Z,99168.19
2019-05-11T09:26:55.437Z,99170.81
2019-05-11T09:29:29.165Z,99169.48
2019-05-11T09:32:03.224Z,99166.78
2019-05-11T09:34:37.754Z,99160.83
2019-05-11T09:37:10.840Z,99163.50
2019-05-11T09:39:45.027Z,99162.27
2019-05-11T09:42:18.891Z,99165.34
2019-05-11T09:44:53.040Z,99164.05
2019-05-11T09:47:27.900Z,99160.43
2019-05-11T09:50:01.712Z,99161.09
2019-05-11T09:52:35.407Z,99157.42
2019-05-11T09:55:10.656Z,99160.17
2019-05-11T09:57:44.842Z,99157.89
2019-05-11T10:00:18.084Z,99158.64
2019-05-11T10:02:51.385Z,99153.18
2019-05-11T10:05:25.437Z,99152.72
2019-05-11T10:07:59.558Z,99153.15
2019-05-11T10:10:33.194Z,99148.96
2019-05-11T10:13:08.092Z,99145.16
2019-05-11T10:15:41.278Z,99147.75
2019-05-11T10:18:14.323Z,99141.72
2019-05-11T10:20:48.210Z,99138.69
2019-05-11T10:23:21.162Z,99139.49
2019-05-11T10:25:54.497Z,99142.77
2019-05-11T10:28:28.890Z,99140.08
2019-05-11T10:31:02.626Z,99140.17
2019-05-11T10:33:38.228Z,99137.00
2019-05-11T10:36:12.684Z,99135.27
2019-05-11T10:38:48.619Z,99131.82
2019-05-11T10:41:22.206Z,99133.13
2019-05-11T10:43:58.086Z,99132.52
2019-05-11T10:46:31.877Z,99133.94
2019-05-11T10:49:07.811Z,99136.10
2019-05-11T10:51:41.224Z,99131.33
2019-05-11T10:54:14.542Z,99126.91
2019-05-11T10:56:48.634Z,99127.83
2019-05-11T10:59:22.984Z,99128.34
2019-05-11T11:01:59.045Z,99124.71
2019-05-11T11:04:32.505Z,99124.13
2019-05-11T11:07:07.748Z,99122.91
2019-05-11T11:09:42.276Z,99117.19
2019-05-11T11:12:18.611Z,99116.59
2019-05-11T11:14:51.964Z,99116.57
2019-05-11T11:17:25.269Z,99116.06
2019-05-11T11:19:58.589Z,99120.11
2019-05-11T11:22:39.975Z,99121.95
2019-05-11T11:25:07.853Z,99117.48
2019-05-11T11:27:41.389Z,99118.56
2019-05-11T11:30:17.983Z,99111.35
2019-05-11T11:32:51.648Z,99114.77
2019-05-11T11:35:27.809Z,99114.58
2019-05-11T11:38:01.263Z,99112.85
2019-05-11T11:40:35.325Z,99111.19
2019-05-11T11:43:08.938Z,99112.14
2019-05-11T11:45:42.772Z,99112.91
2019-05-11T11:48:18.887Z,99111.27
2019-05-11T11:50:52.408Z,99111.77
2019-05-11T11:53:27.908Z,99115.97
2019-05-11T11:56:02.298Z,99111.51
2019-05-11T11:58:38.164Z,99112.02
2019-05-11T12:01:12.236Z,99104.97
2019-05-11T12:03:45.524Z,99106.79
2019-05-11T12:06:19.773Z,99108.80
2019-05-11T12:08:53.983Z,99111.85
2019-05-11T12:11:28.199Z,99107.43
2019-05-11T12:14:02.390Z,99105.35
2019-05-11T12:16:38.582Z,99104.98
2019-05-11T12:19:11.974Z,99098.88
2019-05-11T12:21:45.682Z,99097.16
2019-05-11T12:24:19.023Z,99096.92
2019-05-11T12:26:52.817Z,99097.27
2019-05-11T12:29:28.201Z,99092.34
2019-05-11T12:32:03.655Z,99088.20
2019-05-11T12:34:37.562Z,99086.66
2019-05-11T12:37:11.674Z,99081.72
2019-05-11T12:39:45.325Z,99074.72
2019-05-11T12:42:19.489Z,99065.46
2019-05-11T12:44:53.729Z,99057.36
2019-05-11T12:47:28.308Z,99055.53
2019-05-11T12:50:02.057Z,99042.91
2019-05-11T12:52:35.660Z,99040.14
2019-05-11T12:55:08.862Z,99032.73
2019-05-11T12:57:42.221Z,99028.87
2019-05-11T13:00:18.203Z,99026.78
2019-05-11T13:02:51.875Z,99028.92
2019-05-11T13:05:25.583Z,99014.55
2019-05-11T13:07:59.630Z,99010.06
2019-05-11T13:10:33.840Z,99006.96
2019-05-11T13:13:08.982Z,99006.37
2019-05-11T13:15:43.370Z,99003.34
2019-05-11T13:18:18.558Z,98999.72
2019-05-11T13:20:50.978Z,99001.74
2019-05-11T13:23:25.102Z,98993.97
2019-05-11T13:25:58.895Z,98990.03
2019-05-11T13:28:32.601Z,98998.58
2019-05-11T13:31:08.256Z,98994.13
2019-05-11T13:33:41.705Z,98998.88
2019-05-11T13:36:15.841Z,98997.73
2019-05-11T13:38:49.612Z,98996.21
2019-05-11T13:41:23.395Z,98992.59
2019-05-11T13:43:57.695Z,98998.55
2019-05-11T13:46:31.854Z,99004.33
2019-05-11T13:49:05.513Z,99006.09
2019-05-11T13:51:39.115Z,99008.91
2019-05-11T13:54:12.917Z,99012.67
2019-05-11T13:56:48.342Z,99011.02
2019-05-11T13:59:22.309Z,99010.36
2019-05-11T14:01:58.254Z,99011.34
2019-05-11T14:04:32.276Z,99011.70
2019-05-11T14:07:08.045Z,99007.30
2019-05-11T14:09:41.490Z,99002.50
2019-05-11T14:12:18.045Z,99001.40
2019-05-11T14:14:53.225Z,99000.07
2019-05-11T14:17:28.802Z,99002.59
2019-05-11T14:20:02.056Z,99006.55
2019-05-11T14:22:35.768Z,99011.84
2019-05-11T14:25:08.630Z,99006.56
2019-05-11T14:27:42.756Z,99008.84
2019-05-11T14:30:15.736Z,99017.06
2019-05-11T14:32:49.857Z,99018.69
2019-05-11T14:35:23.587Z,99018.78
2019-05-11T14:37:58.802Z,99016.88
2019-05-11T14:40:33.100Z,99019.54
2019-05-11T14:43:08.262Z,99020.55
2019-05-11T14:45:41.478Z,99027.77
2019-05-11T14:48:24.166Z,99026.16
2019-05-11T14:50:51.137Z,99024.88
2019-05-11T14:53:25.151Z,99022.42
2019-05-11T14:55:59.334Z,99025.67
2019-05-11T14:58:33.244Z,99026.80
2019-05-11T15:01:08.880Z,99028.75
2019-05-11T15:03:42.617Z,99028.76
2019-05-11T15:06:16.025Z,99026.62
2019-05-11T15:08:50.139Z,99022.03
2019-05-11T15:11:24.230Z,99020.16
2019-05-11T15:13:57.598Z,99020.66
2019-05-11T15:16:31.318Z,99020.92
2019-05-11T15:19:05.117Z,99019.56
2019-05-11T15:21:39.532Z,99023.07
2019-05-11T15:24:13.770Z,99018.65
2019-05-11T15:26:48.684Z,99018.44
2019-05-11T15:29:22.705Z,99024.50
2019-05-11T15:31:57.862Z,99019.88
2019-05-11T15:34:31.326Z,99018.39
2019-05-11T15:37:04.689Z,99016.20
2019-05-11T15:39:38.102Z,99019.44
2019-05-11T15:42:16.925Z,99019.26
2019-05-11T15:44:48.426Z,99017.72
2019-05-11T15:47:23.962Z,99018.35
2019-05-11T15:49:58.075Z,99017.04
2019-05-11T15:52:31.669Z,99011.59
2019-05-11T15:55:07.926Z,99010.70
2019-05-11T15:57:41.060Z,99006.83
2019-05-11T16:00:14.973Z,99016.91
2019-05-11T16:02:49.185Z,99020.48
2019-05-11T16:05:23.940Z,99025.92
2019-05-11T16:08:01.732Z,99024.64
2019-05-11T16:10:35.010Z,99025.33
2019-05-11T16:13:09.431Z,99023.09
2019-05-11T16:15:43.515Z,99023.44
2019-05-11T16:18:18.967Z,99024.55
2019-05-11T16:20:52.149Z,99027.91
2019-05-11T16:23:28.229Z,99025.92
2019-05-11T16:26:01.634Z,99022.16
2019-05-11T16:28:34.391Z,99023.41
2019-05-11T16:31:09.146Z,99022.70
2019-05-11T16:33:42.949Z,99022.84
2019-05-11T16:36:18.066Z,99019.08
2019-05-11T16:38:51.294Z,99026.09
2019-05-11T16:41:24.844Z,99028.50
2019-05-11T16:43:59.003Z,99028.40
2019-05-11T16:46:32.589Z,99028.67
2019-05-11T16:49:05.255Z,99030.23
2019-05-11T16:51:38.972Z,99032.39
2019-05-11T16:54:12.373Z,99033.64
2019-05-11T16:56:48.555Z,99032.00
2019-05-11T16:59:21.531Z,99034.67
2019-05-11T17:01:55.645Z,99033.34
2019-05-11T17:04:31.253Z,99033.38
2019-05-11T17:07:03.332Z,99043.52
2019-05-11T17:09:37.843Z,99040.58
2019-05-11T17:12:10.077Z,99043.08
2019-05-11T17:15:00.950Z,99045.36
2019-05-11T17:17:33.113Z,99044.10
2019-05-11T17:20:07.772Z,99047.41
2019-05-11T17:22:40.245Z,99047.63
2019-05-11T17:25:13.331Z,99051.25
2019-05-11T17:27:48.256Z,99052.61
2019-05-11T17:30:20.090Z,99051.98
2019-05-11T17:32:54.390Z,99046.99
2019-05-11T17:35:27.470Z,99044.31
2019-05-11T17:38:01.050Z,99050.69
2019-05-11T17:40:34.137Z,99058.78
2019-05-11T17:43:08.862Z,99064.93
2019-05-11T17:45:40.287Z,99069.89
2019-05-11T17:48:13.171Z,99075.22
2019-05-11T17:50:46.202Z,99070.73
2019-05-11T17:53:19.024Z,99074.15
2019-05-11T17:55:52.242Z,99077.09
2019-05-11T17:58:25.188Z,99080.67
2019-05-11T18:00:58.806Z,99082.84
2019-05-11T18:03:31.088Z,99091.28
2019-05-11T18:06:03.957Z,99091.37
2019-05-11T18:08:37.150Z,99096.78
2019-05-11T18:11:09.628Z,99095.15
2019-05-11T18:13:44.083Z,99102.24
2019-05-11T18:16:19.923Z,99103.03
2019-05-11T18:18:52.928Z,99103.46
2019-05-11T18:21:25.433Z,99106.86
2019-05-11T18:23:57.435Z,99112.39
2019-05-11T18:26:32.038Z,99118.08
2019-05-11T18:29:06.203Z,99118.08
2019-05-11T18:31:39.037Z,99115.45
2019-05-11T18:34:13.281Z,99120.20
2019-05-11T18:36:48.549Z,99122.56
2019-05-11T18:39:21.791Z,99123.65
2019-05-11T18:41:55.131Z,99125.81
2019-05-11T18:44:27.708Z,99122.38
2019-05-11T18:47:01.163Z,99129.30
2019-05-11T18:49:34.347Z,99128.28
2019-05-11T18:52:08.223Z,99131.28
2019-05-11T18:54:40.612Z,99136.17
2019-05-11T18:57:32.344Z,99136.01
2019-05-11T19:00:08.068Z,99140.05
2019-05-11T19:02:40.393Z,99137.68
2019-05-11T19:05:12.942Z,99137.53
2019-05-11T19:07:48.624Z,99134.01
2019-05-11T19:10:22.586Z,99131.42
2019-05-11T19:12:56.161Z,99129.59
2019-05-11T19:15:28.921Z,99131.28
2019-05-11T19:18:02.109Z,99138.56
2019-05-11T19:23:12.208Z,99142.78
2019-05-11T19:25:45.328Z,99144.13
2019-05-11T19:28:18.781Z,99144.55
2019-05-11T19:30:52.838Z,99143.19
2019-05-11T19:33:27.829Z,99143.00
2019-05-11T19:36:00.229Z,99138.23
2019-05-11T19:38:33.767Z,99142.03
2019-05-11T19:41:08.019Z,99142.72
2019-05-11T19:43:41.703Z,99143.78
2019-05-11T19:46:15.124Z,99148.56
2019-05-11T19:48:47.956Z,99146.89
2019-05-11T19:51:21.246Z,99153.38
2019-05-11T19:53:54.744Z,99149.08
2019-05-11T19:56:29.080Z,99150.45
2019-05-11T19:59:02.520Z,99156.59
2019-05-11T20:01:35.991Z,99148.68
2019-05-11T20:04:10.136Z,99150.35
2019-05-11T20:06:47.829Z,99158.97
2019-05-11T20:09:20.721Z,99160.52
2019-05-11T20:11:54.650Z,99160.22
2019-05-11T20:14:28.369Z,99164.55
2019-05-11T20:17:01.895Z,99171.30
2019-05-11T20:19:34.099Z,99175.30
2019-05-11T20:22:06.639Z,99173.03
2019-05-11T20:24:39.697Z,99178.27
2019-05-11T20:27:13.325Z,99190.99
2019-05-11T20:29:47.780Z,99192.72
2019-05-11T20:32:20.712Z,99196.44
2019-05-11T20:34:53.578Z,99203.72
2019-05-11T20:37:28.802Z,99200.81
2019-05-11T20:40:03.104Z,99204.73
2019-05-11T20:42:38.082Z,99200.45
2019-05-11T20:45:11.668Z,99202.75
2019-05-11T20:47:48.422Z,99205.41
2019-05-11T20:50:21.779Z,99198.62
2019-05-11T20:52:55.272Z,99200.05
2019-05-11T20:55:28.684Z,99201.79
2019-05-11T20:58:01.869Z,99197.80
2019-05-11T21:00:34.850Z,99201.48
2019-05-11T21:03:09.231Z,99199.80
2019-05-11T21:05:41.713Z,99204.00
2019-05-11T21:08:14.962Z,99204.72
2019-05-11T21:10:49.001Z,99206.08
2019-05-11T21:13:21.926Z,99199.50
2019-05-11T21:15:54.440Z,99204.92
2019-05-11T21:18:28.738Z,99206.08
2019-05-11T21:21:01.541Z,99206.95
2019-05-11T21:23:34.563Z,99210.65
2019-05-11T21:26:09.949Z,99210.63
2019-05-11T21:28:43.704Z,99213.73
2019-05-11T21:31:18.561Z,99216.36
2019-05-11T21:33:51.937Z,99214.91
2019-05-11T21:36:25.197Z,99216.14
2019-05-11T21:38:58.762Z,99226.16
2019-05-11T21:41:32.371Z,99223.87
2019-05-11T21:44:07.786Z,99224.87
2019-05-11T21:46:41.010Z,99224.21
2019-05-11T21:49:15.156Z,99227.86
2019-05-11T21:52:03.334Z,99233.02
2019-05-11T21:54:23.532Z,99234.17
2019-05-11T21:56:57.812Z,99232.84
2019-05-11T21:59:31.981Z,99232.26
2019-05-11T22:02:08.155Z,99229.12
2019-05-11T22:04:40.673Z,99232.69
2019-05-11T22:07:13.997Z,99229.91
2019-05-11T22:09:47.437Z,99231.42
2019-05-11T22:12:21.781Z,99229.98
2019-05-11T22:14:57.982Z,99233.95
2019-05-11T22:17:31.695Z,99236.30
2019-05-11T22:20:04.284Z,99238.59
2019-05-11T22:22:38.888Z,99237.06
2019-05-11T22:25:12.448Z,99238.94
2019-05-11T22:27:48.562Z,99247.29
2019-05-11T22:30:21.540Z,99252.81
2019-05-11T22:32:55.431Z,99255.92
2019-05-11T22:35:29.910Z,99255.48
2019-05-11T22:38:03.696Z,99259.12
2019-05-11T22:40:38.322Z,99259.67
2019-05-11T22:43:12.511Z,99260.88
2019-05-11T22:45:48.506Z,99261.13
2019-05-11T22:48:21.832Z,99258.70
2019-05-11T22:50:55.104Z,99263.27
2019-05-11T22:53:43.377Z,99263.28
2019-05-11T22:56:04.249Z,99269.92
2019-05-11T22:58:38.075Z,99265.42
2019-05-11T23:01:12.708Z,99266.34
2019-05-11T23:03:47.452Z,99270.97
2019-05-11T23:06:23.601Z,99269.20
2019-05-11T23:08:58.517Z,99274.91
2019-05-11T23:11:31.201Z,99272.83
2019-05-11T23:14:04.484Z,99273.47
2019-05-11T23:16:37.778Z,99272.33
2019-05-11T23:19:11.605Z,99282.64
2019-05-11T23:21:45.386Z,99284.98
2019-05-11T23:24:18.781Z,99284.86
2019-05-11T23:26:52.593Z,99291.38
2019-05-11T23:29:27.906Z,99296.83
2019-05-11T23:32:01.638Z,99297.58
2019-05-11T23:34:35.291Z,99292.17
2019-05-11T23:37:08.409Z,99283.05
2019-05-11T23:39:41.722Z,99280.47
2019-05-11T23:42:14.607Z,99280.21
2019-05-11T23:44:48.411Z,99274.80
2019-05-11T23:47:21.878Z,99275.31
2019-05-11T23:49:55.627Z,99275.19
2019-05-11T23:52:29.582Z,99275.65
2019-05-11T23:55:03.161Z,99275.98
2019-05-11T23:57:37.954Z,99271.77
